sensor_id;sensor_type;location;lat;lon;timestamp;temperature;humidity
19214;DHT22;9741;51.020;5.304;2023-05-07T00:02:15;15.90;61.20
19214;DHT22;9741;51.020;5.304;2023-05-07T00:04:43;15.90;61.30
19214;DHT22;9741;51.020;5.304;2023-05-07T00:07:14;15.90;61.40
19214;DHT22;9741;51.020;5.304;2023-05-07T00:09:41;15.90;61.40
19214;DHT22;9741;51.020;5.304;2023-05-07T00:12:09;15.90;61.50
19214;DHT22;9741;51.020;5.304;2023-05-07T00:14:37;15.90;61.60
19214;DHT22;9741;51.020;5.304;2023-05-07T00:17:06;15.80;61.50
19214;DHT22;9741;51.020;5.304;2023-05-07T00:19:33;15.90;61.70
19214;DHT22;9741;51.020;5.304;2023-05-07T00:22:00;15.80;61.70
19214;DHT22;9741;51.020;5.304;2023-05-07T00:24:30;15.80;61.70
19214;DHT22;9741;51.020;5.304;2023-05-07T00:26:57;15.90;61.90
19214;DHT22;9741;51.020;5.304;2023-05-07T00:29:29;15.90;61.90
19214;DHT22;9741;51.020;5.304;2023-05-07T00:31:56;15.90;61.90
19214;DHT22;9741;51.020;5.304;2023-05-07T00:34:24;15.90;61.90
19214;DHT22;9741;51.020;5.304;2023-05-07T00:36:52;15.90;61.90
19214;DHT22;9741;51.020;5.304;2023-05-07T00:39:19;15.90;61.90
19214;DHT22;9741;51.020;5.304;2023-05-07T00:41:48;15.90;61.90
19214;DHT22;9741;51.020;5.304;2023-05-07T00:44:18;16.00;62.00
19214;DHT22;9741;51.020;5.304;2023-05-07T00:46:46;15.90;61.90
19214;DHT22;9741;51.020;5.304;2023-05-07T00:49:17;15.90;61.90
19214;DHT22;9741;51.020;5.304;2023-05-07T00:51:45;15.90;62.00
19214;DHT22;9741;51.020;5.304;2023-05-07T00:54:13;15.90;62.00
19214;DHT22;9741;51.020;5.304;2023-05-07T00:56:41;15.90;62.10
19214;DHT22;9741;51.020;5.304;2023-05-07T00:59:10;16.00;62.20
19214;DHT22;9741;51.020;5.304;2023-05-07T01:01:38;16.00;62.20
19214;DHT22;9741;51.020;5.304;2023-05-07T01:04:05;16.00;62.20
19214;DHT22;9741;51.020;5.304;2023-05-07T01:06:33;16.00;62.20
19214;DHT22;9741;51.020;5.304;2023-05-07T01:09:02;16.00;62.30
19214;DHT22;9741;51.020;5.304;2023-05-07T01:11:32;16.00;62.30
19214;DHT22;9741;51.020;5.304;2023-05-07T01:14:02;16.00;62.40
19214;DHT22;9741;51.020;5.304;2023-05-07T01:16:31;16.10;62.50
19214;DHT22;9741;51.020;5.304;2023-05-07T01:18:58;16.10;62.50
19214;DHT22;9741;51.020;5.304;2023-05-07T01:21:27;16.10;62.50
19214;DHT22;9741;51.020;5.304;2023-05-07T01:24:04;16.10;62.50
19214;DHT22;9741;51.020;5.304;2023-05-07T01:26:35;16.10;62.50
19214;DHT22;9741;51.020;5.304;2023-05-07T01:29:02;16.10;62.50
19214;DHT22;9741;51.020;5.304;2023-05-07T01:31:31;16.10;62.50
19214;DHT22;9741;51.020;5.304;2023-05-07T01:33:59;16.10;62.50
19214;DHT22;9741;51.020;5.304;2023-05-07T01:36:29;16.10;62.50
19214;DHT22;9741;51.020;5.304;2023-05-07T01:38:57;16.10;62.60
19214;DHT22;9741;51.020;5.304;2023-05-07T01:41:27;16.10;62.60
19214;DHT22;9741;51.020;5.304;2023-05-07T01:43:55;16.10;62.60
19214;DHT22;9741;51.020;5.304;2023-05-07T01:46:23;16.10;62.60
19214;DHT22;9741;51.020;5.304;2023-05-07T01:48:52;16.10;62.60
19214;DHT22;9741;51.020;5.304;2023-05-07T01:51:21;16.00;62.60
19214;DHT22;9741;51.020;5.304;2023-05-07T01:53:52;16.00;62.60
19214;DHT22;9741;51.020;5.304;2023-05-07T01:56:19;16.00;62.70
19214;DHT22;9741;51.020;5.304;2023-05-07T01:58:52;16.00;62.70
19214;DHT22;9741;51.020;5.304;2023-05-07T02:01:19;16.00;62.70
19214;DHT22;9741;51.020;5.304;2023-05-07T02:03:47;16.00;62.80
19214;DHT22;9741;51.020;5.304;2023-05-07T02:06:17;16.00;62.80
19214;DHT22;9741;51.020;5.304;2023-05-07T02:08:45;16.00;62.90
19214;DHT22;9741;51.020;5.304;2023-05-07T02:11:12;16.00;62.90
19214;DHT22;9741;51.020;5.304;2023-05-07T02:13:41;16.00;62.90
19214;DHT22;9741;51.020;5.304;2023-05-07T02:16:11;16.00;62.90
19214;DHT22;9741;51.020;5.304;2023-05-07T02:18:42;16.00;63.00
19214;DHT22;9741;51.020;5.304;2023-05-07T02:21:09;16.00;63.00
19214;DHT22;9741;51.020;5.304;2023-05-07T02:23:37;16.00;63.00
19214;DHT22;9741;51.020;5.304;2023-05-07T02:26:08;16.00;63.00
19214;DHT22;9741;51.020;5.304;2023-05-07T02:28:35;16.00;63.00
19214;DHT22;9741;51.020;5.304;2023-05-07T02:31:03;16.00;63.10
19214;DHT22;9741;51.020;5.304;2023-05-07T02:33:33;16.00;63.10
19214;DHT22;9741;51.020;5.304;2023-05-07T02:36:06;16.00;63.10
19214;DHT22;9741;51.020;5.304;2023-05-07T02:38:34;16.00;63.10
19214;DHT22;9741;51.020;5.304;2023-05-07T02:41:03;16.00;63.10
19214;DHT22;9741;51.020;5.304;2023-05-07T02:43:31;16.10;63.20
19214;DHT22;9741;51.020;5.304;2023-05-07T02:46:03;16.10;63.20
19214;DHT22;9741;51.020;5.304;2023-05-07T02:48:34;16.10;63.20
19214;DHT22;9741;51.020;5.304;2023-05-07T02:51:04;16.10;63.20
19214;DHT22;9741;51.020;5.304;2023-05-07T02:53:33;16.10;63.20
19214;DHT22;9741;51.020;5.304;2023-05-07T02:56:02;16.10;63.20
19214;DHT22;9741;51.020;5.304;2023-05-07T02:58:29;16.10;63.20
19214;DHT22;9741;51.020;5.304;2023-05-07T03:00:56;16.10;63.20
19214;DHT22;9741;51.020;5.304;2023-05-07T03:03:27;16.20;63.30
19214;DHT22;9741;51.020;5.304;2023-05-07T03:05:56;16.20;63.40
19214;DHT22;9741;51.020;5.304;2023-05-07T03:08:24;16.20;63.30
19214;DHT22;9741;51.020;5.304;2023-05-07T03:10:52;16.20;63.30
19214;DHT22;9741;51.020;5.304;2023-05-07T03:13:19;16.20;63.30
19214;DHT22;9741;51.020;5.304;2023-05-07T03:15:49;16.10;63.20
19214;DHT22;9741;51.020;5.304;2023-05-07T03:18:17;16.10;63.20
19214;DHT22;9741;51.020;5.304;2023-05-07T03:20:45;16.10;63.20
19214;DHT22;9741;51.020;5.304;2023-05-07T03:23:14;16.10;63.20
19214;DHT22;9741;51.020;5.304;2023-05-07T03:25:41;16.10;63.20
19214;DHT22;9741;51.020;5.304;2023-05-07T03:28:09;16.10;63.30
19214;DHT22;9741;51.020;5.304;2023-05-07T03:30:36;16.10;63.40
19214;DHT22;9741;51.020;5.304;2023-05-07T03:33:04;16.10;63.40
19214;DHT22;9741;51.020;5.304;2023-05-07T03:35:32;16.10;63.40
19214;DHT22;9741;51.020;5.304;2023-05-07T03:38:00;16.10;63.40
19214;DHT22;9741;51.020;5.304;2023-05-07T03:40:29;16.00;63.80
19214;DHT22;9741;51.020;5.304;2023-05-07T03:42:56;16.00;63.30
19214;DHT22;9741;51.020;5.304;2023-05-07T03:45:26;16.00;63.20
19214;DHT22;9741;51.020;5.304;2023-05-07T03:47:54;16.00;63.20
19214;DHT22;9741;51.020;5.304;2023-05-07T03:50:21;16.00;63.20
19214;DHT22;9741;51.020;5.304;2023-05-07T03:52:49;16.00;63.20
19214;DHT22;9741;51.020;5.304;2023-05-07T03:55:18;16.00;63.20
19214;DHT22;9741;51.020;5.304;2023-05-07T03:57:48;16.00;63.20
19214;DHT22;9741;51.020;5.304;2023-05-07T04:00:15;16.00;63.30
19214;DHT22;9741;51.020;5.304;2023-05-07T04:02:43;16.00;63.30
19214;DHT22;9741;51.020;5.304;2023-05-07T04:05:12;15.90;63.30
19214;DHT22;9741;51.020;5.304;2023-05-07T04:07:41;15.90;63.30
19214;DHT22;9741;51.020;5.304;2023-05-07T04:10:09;15.90;63.30
19214;DHT22;9741;51.020;5.304;2023-05-07T04:12:36;15.90;63.30
19214;DHT22;9741;51.020;5.304;2023-05-07T04:15:06;16.00;63.40
19214;DHT22;9741;51.020;5.304;2023-05-07T04:17:34;16.00;63.50
19214;DHT22;9741;51.020;5.304;2023-05-07T04:20:03;16.00;63.50
19214;DHT22;9741;51.020;5.304;2023-05-07T04:22:32;16.00;63.50
19214;DHT22;9741;51.020;5.304;2023-05-07T04:25:03;16.00;63.40
19214;DHT22;9741;51.020;5.304;2023-05-07T04:27:31;16.10;63.50
19214;DHT22;9741;51.020;5.304;2023-05-07T04:29:58;16.10;63.50
19214;DHT22;9741;51.020;5.304;2023-05-07T04:32:30;16.10;63.50
19214;DHT22;9741;51.020;5.304;2023-05-07T04:35:00;16.10;63.50
19214;DHT22;9741;51.020;5.304;2023-05-07T04:37:27;16.10;63.50
19214;DHT22;9741;51.020;5.304;2023-05-07T04:39:55;16.10;63.50
19214;DHT22;9741;51.020;5.304;2023-05-07T04:42:23;16.20;63.60
19214;DHT22;9741;51.020;5.304;2023-05-07T04:44:53;16.30;63.60
19214;DHT22;9741;51.020;5.304;2023-05-07T04:47:21;16.30;63.60
19214;DHT22;9741;51.020;5.304;2023-05-07T04:49:53;16.30;63.60
19214;DHT22;9741;51.020;5.304;2023-05-07T04:52:20;16.30;63.60
19214;DHT22;9741;51.020;5.304;2023-05-07T04:54:47;16.40;63.70
19214;DHT22;9741;51.020;5.304;2023-05-07T04:57:15;16.40;63.70
19214;DHT22;9741;51.020;5.304;2023-05-07T04:59:43;16.40;63.70
19214;DHT22;9741;51.020;5.304;2023-05-07T05:02:12;16.50;63.70
19214;DHT22;9741;51.020;5.304;2023-05-07T05:04:40;16.50;63.70
19214;DHT22;9741;51.020;5.304;2023-05-07T05:07:09;16.60;63.70
19214;DHT22;9741;51.020;5.304;2023-05-07T05:09:39;16.60;63.70
19214;DHT22;9741;51.020;5.304;2023-05-07T05:12:08;16.70;63.70
19214;DHT22;9741;51.020;5.304;2023-05-07T05:14:37;16.70;63.70
19214;DHT22;9741;51.020;5.304;2023-05-07T05:17:04;16.80;63.80
19214;DHT22;9741;51.020;5.304;2023-05-07T05:19:32;16.80;63.70
19214;DHT22;9741;51.020;5.304;2023-05-07T05:22:00;17.00;63.80
19214;DHT22;9741;51.020;5.304;2023-05-07T05:24:31;17.00;63.70
19214;DHT22;9741;51.020;5.304;2023-05-07T05:26:59;17.20;63.80
19214;DHT22;9741;51.020;5.304;2023-05-07T05:29:27;17.20;63.70
19214;DHT22;9741;51.020;5.304;2023-05-07T05:31:54;17.30;63.70
19214;DHT22;9741;51.020;5.304;2023-05-07T05:34:22;17.40;64.20
19214;DHT22;9741;51.020;5.304;2023-05-07T05:36:50;17.50;63.70
19214;DHT22;9741;51.020;5.304;2023-05-07T05:39:19;17.60;63.60
19214;DHT22;9741;51.020;5.304;2023-05-07T05:41:48;17.70;63.50
19214;DHT22;9741;51.020;5.304;2023-05-07T05:44:16;17.80;63.40
19214;DHT22;9741;51.020;5.304;2023-05-07T05:46:43;17.90;63.40
19214;DHT22;9741;51.020;5.304;2023-05-07T05:49:10;17.90;63.20
19214;DHT22;9741;51.020;5.304;2023-05-07T05:51:38;18.00;63.20
19214;DHT22;9741;51.020;5.304;2023-05-07T05:54:06;18.10;63.10
19214;DHT22;9741;51.020;5.304;2023-05-07T05:56:33;18.20;63.10
19214;DHT22;9741;51.020;5.304;2023-05-07T05:59:06;18.30;63.00
19214;DHT22;9741;51.020;5.304;2023-05-07T06:01:34;18.50;63.00
19214;DHT22;9741;51.020;5.304;2023-05-07T06:04:01;18.60;62.90
19214;DHT22;9741;51.020;5.304;2023-05-07T06:06:29;18.80;62.80
19214;DHT22;9741;51.020;5.304;2023-05-07T06:08:57;18.90;62.60
19214;DHT22;9741;51.020;5.304;2023-05-07T06:11:25;19.10;62.50
19214;DHT22;9741;51.020;5.304;2023-05-07T06:13:52;19.20;62.30
19214;DHT22;9741;51.020;5.304;2023-05-07T06:16:24;19.30;62.10
19214;DHT22;9741;51.020;5.304;2023-05-07T06:18:51;19.40;61.80
19214;DHT22;9741;51.020;5.304;2023-05-07T06:21:19;19.50;61.80
19214;DHT22;9741;51.020;5.304;2023-05-07T06:23:46;19.60;61.60
19214;DHT22;9741;51.020;5.304;2023-05-07T06:26:15;19.70;61.40
19214;DHT22;9741;51.020;5.304;2023-05-07T06:28:44;19.80;61.30
19214;DHT22;9741;51.020;5.304;2023-05-07T06:31:12;19.90;61.10
19214;DHT22;9741;51.020;5.304;2023-05-07T06:33:44;20.00;61.00
19214;DHT22;9741;51.020;5.304;2023-05-07T06:36:12;20.10;60.80
19214;DHT22;9741;51.020;5.304;2023-05-07T06:38:40;20.20;60.70
19214;DHT22;9741;51.020;5.304;2023-05-07T06:41:07;20.30;60.50
19214;DHT22;9741;51.020;5.304;2023-05-07T06:43:35;20.40;60.50
19214;DHT22;9741;51.020;5.304;2023-05-07T06:46:05;20.40;60.30
19214;DHT22;9741;51.020;5.304;2023-05-07T06:48:33;20.50;60.20
19214;DHT22;9741;51.020;5.304;2023-05-07T06:51:04;20.70;60.20
19214;DHT22;9741;51.020;5.304;2023-05-07T06:53:32;21.00;60.20
19214;DHT22;9741;51.020;5.304;2023-05-07T06:56:01;21.20;59.90
19214;DHT22;9741;51.020;5.304;2023-05-07T06:58:29;21.50;59.70
19214;DHT22;9741;51.020;5.304;2023-05-07T07:00:57;21.80;59.40
19214;DHT22;9741;51.020;5.304;2023-05-07T07:03:24;22.10;59.10
19214;DHT22;9741;51.020;5.304;2023-05-07T07:05:52;22.40;58.60
19214;DHT22;9741;51.020;5.304;2023-05-07T07:08:22;22.80;58.30
19214;DHT22;9741;51.020;5.304;2023-05-07T07:10:49;23.10;57.70
19214;DHT22;9741;51.020;5.304;2023-05-07T07:13:18;23.40;57.50
19214;DHT22;9741;51.020;5.304;2023-05-07T07:15:47;24.00;57.50
19214;DHT22;9741;51.020;5.304;2023-05-07T07:18:15;24.60;56.70
19214;DHT22;9741;51.020;5.304;2023-05-07T07:20:47;25.10;55.70
19214;DHT22;9741;51.020;5.304;2023-05-07T07:23:15;25.30;54.60
19214;DHT22;9741;51.020;5.304;2023-05-07T07:25:46;25.40;54.00
19214;DHT22;9741;51.020;5.304;2023-05-07T07:28:16;25.40;53.60
19214;DHT22;9741;51.020;5.304;2023-05-07T07:30:44;25.40;53.20
19214;DHT22;9741;51.020;5.304;2023-05-07T07:33:13;25.50;53.00
19214;DHT22;9741;51.020;5.304;2023-05-07T07:35:41;25.50;52.70
19214;DHT22;9741;51.020;5.304;2023-05-07T07:38:11;25.40;52.30
19214;DHT22;9741;51.020;5.304;2023-05-07T07:40:39;25.30;52.10
19214;DHT22;9741;51.020;5.304;2023-05-07T07:43:08;25.30;52.00
19214;DHT22;9741;51.020;5.304;2023-05-07T07:45:37;25.30;51.90
19214;DHT22;9741;51.020;5.304;2023-05-07T07:48:06;25.20;51.70
19214;DHT22;9741;51.020;5.304;2023-05-07T07:50:34;25.20;51.40
19214;DHT22;9741;51.020;5.304;2023-05-07T07:53:02;25.10;51.30
19214;DHT22;9741;51.020;5.304;2023-05-07T07:55:34;25.00;51.00
19214;DHT22;9741;51.020;5.304;2023-05-07T07:58:05;24.90;50.90
19214;DHT22;9741;51.020;5.304;2023-05-07T08:00:34;24.90;50.80
19214;DHT22;9741;51.020;5.304;2023-05-07T08:03:02;24.80;50.60
19214;DHT22;9741;51.020;5.304;2023-05-07T08:05:29;24.80;50.70
19214;DHT22;9741;51.020;5.304;2023-05-07T08:07:57;24.80;50.70
19214;DHT22;9741;51.020;5.304;2023-05-07T08:10:25;24.70;50.40
19214;DHT22;9741;51.020;5.304;2023-05-07T08:12:53;24.70;50.40
19214;DHT22;9741;51.020;5.304;2023-05-07T08:15:21;24.60;50.30
19214;DHT22;9741;51.020;5.304;2023-05-07T08:17:51;24.50;50.30
19214;DHT22;9741;51.020;5.304;2023-05-07T08:20:20;24.40;50.30
19214;DHT22;9741;51.020;5.304;2023-05-07T08:22:53;24.40;50.50
19214;DHT22;9741;51.020;5.304;2023-05-07T08:25:21;24.40;50.60
19214;DHT22;9741;51.020;5.304;2023-05-07T08:27:50;24.40;50.50
19214;DHT22;9741;51.020;5.304;2023-05-07T08:30:18;24.50;50.50
19214;DHT22;9741;51.020;5.304;2023-05-07T08:32:46;24.60;50.40
19214;DHT22;9741;51.020;5.304;2023-05-07T08:35:14;24.80;50.40
19214;DHT22;9741;51.020;5.304;2023-05-07T08:37:44;24.90;50.00
19214;DHT22;9741;51.020;5.304;2023-05-07T08:40:12;25.10;49.90
19214;DHT22;9741;51.020;5.304;2023-05-07T08:42:42;25.30;49.60
19214;DHT22;9741;51.020;5.304;2023-05-07T08:45:12;25.50;49.30
19214;DHT22;9741;51.020;5.304;2023-05-07T08:47:43;25.70;49.00
19214;DHT22;9741;51.020;5.304;2023-05-07T08:50:11;25.90;48.80
19214;DHT22;9741;51.020;5.304;2023-05-07T08:52:44;26.00;48.50
19214;DHT22;9741;51.020;5.304;2023-05-07T08:55:13;26.20;48.90
19214;DHT22;9741;51.020;5.304;2023-05-07T08:57:42;26.30;48.20
19214;DHT22;9741;51.020;5.304;2023-05-07T09:00:14;26.40;48.30
19214;DHT22;9741;51.020;5.304;2023-05-07T09:02:42;26.50;48.00
19214;DHT22;9741;51.020;5.304;2023-05-07T09:05:12;26.50;47.70
19214;DHT22;9741;51.020;5.304;2023-05-07T09:07:48;26.50;47.50
19214;DHT22;9741;51.020;5.304;2023-05-07T09:10:17;26.50;47.60
19214;DHT22;9741;51.020;5.304;2023-05-07T09:12:47;26.50;47.50
19214;DHT22;9741;51.020;5.304;2023-05-07T09:15:14;26.60;47.50
19214;DHT22;9741;51.020;5.304;2023-05-07T09:17:43;26.60;47.40
19214;DHT22;9741;51.020;5.304;2023-05-07T09:20:11;26.60;47.40
19214;DHT22;9741;51.020;5.304;2023-05-07T09:22:39;26.60;47.40
19214;DHT22;9741;51.020;5.304;2023-05-07T09:25:09;26.70;47.50
19214;DHT22;9741;51.020;5.304;2023-05-07T09:27:37;26.80;47.20
19214;DHT22;9741;51.020;5.304;2023-05-07T09:30:06;26.90;47.00
19214;DHT22;9741;51.020;5.304;2023-05-07T09:32:36;26.90;46.80
19214;DHT22;9741;51.020;5.304;2023-05-07T09:35:06;26.90;46.60
19214;DHT22;9741;51.020;5.304;2023-05-07T09:37:42;26.90;46.50
19214;DHT22;9741;51.020;5.304;2023-05-07T09:40:22;27.00;46.40
19214;DHT22;9741;51.020;5.304;2023-05-07T09:42:50;27.10;46.40
19214;DHT22;9741;51.020;5.304;2023-05-07T09:45:22;27.20;46.20
19214;DHT22;9741;51.020;5.304;2023-05-07T09:47:54;27.40;46.00
19214;DHT22;9741;51.020;5.304;2023-05-07T09:50:26;27.60;45.70
19214;DHT22;9741;51.020;5.304;2023-05-07T09:52:55;27.70;45.30
19214;DHT22;9741;51.020;5.304;2023-05-07T09:55:25;27.80;45.40
19214;DHT22;9741;51.020;5.304;2023-05-07T09:57:56;27.90;45.10
19214;DHT22;9741;51.020;5.304;2023-05-07T10:00:26;28.00;45.00
19214;DHT22;9741;51.020;5.304;2023-05-07T10:02:57;28.10;44.80
19214;DHT22;9741;51.020;5.304;2023-05-07T10:05:26;28.10;44.80
19214;DHT22;9741;51.020;5.304;2023-05-07T10:07:55;28.00;44.70
19214;DHT22;9741;51.020;5.304;2023-05-07T10:10:24;27.90;44.40
19214;DHT22;9741;51.020;5.304;2023-05-07T10:12:54;27.90;44.70
19214;DHT22;9741;51.020;5.304;2023-05-07T10:15:23;27.90;44.70
19214;DHT22;9741;51.020;5.304;2023-05-07T10:17:55;27.80;44.60
19214;DHT22;9741;51.020;5.304;2023-05-07T10:20:24;27.80;44.60
19214;DHT22;9741;51.020;5.304;2023-05-07T10:22:53;27.80;44.70
19214;DHT22;9741;51.020;5.304;2023-05-07T10:25:28;27.70;44.60
19214;DHT22;9741;51.020;5.304;2023-05-07T10:28:03;27.70;44.60
19214;DHT22;9741;51.020;5.304;2023-05-07T10:30:44;27.50;44.60
19214;DHT22;9741;51.020;5.304;2023-05-07T10:33:17;27.50;44.80
19214;DHT22;9741;51.020;5.304;2023-05-07T10:35:48;27.40;44.90
19214;DHT22;9741;51.020;5.304;2023-05-07T10:38:16;27.40;44.90
19214;DHT22;9741;51.020;5.304;2023-05-07T10:40:47;27.30;44.80
19214;DHT22;9741;51.020;5.304;2023-05-07T10:43:15;27.30;45.00
19214;DHT22;9741;51.020;5.304;2023-05-07T10:46:09;27.20;45.00
19214;DHT22;9741;51.020;5.304;2023-05-07T10:49:11;27.20;45.00
19214;DHT22;9741;51.020;5.304;2023-05-07T10:51:39;27.10;45.10
19214;DHT22;9741;51.020;5.304;2023-05-07T10:54:25;27.00;45.30
19214;DHT22;9741;51.020;5.304;2023-05-07T10:56:55;26.90;45.40
19214;DHT22;9741;51.020;5.304;2023-05-07T10:59:34;26.80;45.70
19214;DHT22;9741;51.020;5.304;2023-05-07T11:02:08;26.70;45.70
19214;DHT22;9741;51.020;5.304;2023-05-07T11:04:37;26.60;45.90
19214;DHT22;9741;51.020;5.304;2023-05-07T11:07:35;26.40;46.00
19214;DHT22;9741;51.020;5.304;2023-05-07T11:10:04;26.30;46.20
19214;DHT22;9741;51.020;5.304;2023-05-07T11:12:53;26.20;46.30
19214;DHT22;9741;51.020;5.304;2023-05-07T11:15:41;26.00;46.30
19214;DHT22;9741;51.020;5.304;2023-05-07T11:18:12;25.80;46.50
19214;DHT22;9741;51.020;5.304;2023-05-07T11:20:55;25.70;46.60
19214;DHT22;9741;51.020;5.304;2023-05-07T11:23:59;25.50;46.70
19214;DHT22;9741;51.020;5.304;2023-05-07T11:26:31;25.40;47.00
19214;DHT22;9741;51.020;5.304;2023-05-07T11:29:16;25.20;47.40
19214;DHT22;9741;51.020;5.304;2023-05-07T11:31:49;25.10;47.80
19214;DHT22;9741;51.020;5.304;2023-05-07T11:34:25;24.90;48.10
19214;DHT22;9741;51.020;5.304;2023-05-07T11:37:00;24.90;48.60
19214;DHT22;9741;51.020;5.304;2023-05-07T11:39:29;24.70;48.90
19214;DHT22;9741;51.020;5.304;2023-05-07T11:41:59;24.60;49.20
19214;DHT22;9741;51.020;5.304;2023-05-07T11:44:44;24.50;49.60
19214;DHT22;9741;51.020;5.304;2023-05-07T11:47:17;24.30;49.90
19214;DHT22;9741;51.020;5.304;2023-05-07T11:49:48;24.30;50.30
19214;DHT22;9741;51.020;5.304;2023-05-07T11:52:20;24.20;50.30
19214;DHT22;9741;51.020;5.304;2023-05-07T11:54:49;24.00;50.50
19214;DHT22;9741;51.020;5.304;2023-05-07T11:57:20;23.90;50.80
19214;DHT22;9741;51.020;5.304;2023-05-07T11:59:52;23.80;51.10
19214;DHT22;9741;51.020;5.304;2023-05-07T12:02:20;23.70;51.40
19214;DHT22;9741;51.020;5.304;2023-05-07T12:04:48;23.70;51.70
19214;DHT22;9741;51.020;5.304;2023-05-07T12:07:17;23.60;51.70
19214;DHT22;9741;51.020;5.304;2023-05-07T12:09:45;23.60;52.10
19214;DHT22;9741;51.020;5.304;2023-05-07T12:12:13;23.60;52.30
19214;DHT22;9741;51.020;5.304;2023-05-07T12:14:45;23.50;52.50
19214;DHT22;9741;51.020;5.304;2023-05-07T12:17:17;23.50;52.70
19214;DHT22;9741;51.020;5.304;2023-05-07T12:19:48;23.60;53.00
19214;DHT22;9741;51.020;5.304;2023-05-07T12:22:15;23.60;53.10
19214;DHT22;9741;51.020;5.304;2023-05-07T12:24:44;23.60;53.30
19214;DHT22;9741;51.020;5.304;2023-05-07T12:27:13;23.70;53.40
19214;DHT22;9741;51.020;5.304;2023-05-07T12:29:44;23.70;53.30
19214;DHT22;9741;51.020;5.304;2023-05-07T12:32:17;23.80;53.40
19214;DHT22;9741;51.020;5.304;2023-05-07T12:34:49;23.90;53.30
19214;DHT22;9741;51.020;5.304;2023-05-07T12:37:23;23.90;53.40
19214;DHT22;9741;51.020;5.304;2023-05-07T12:40:04;23.90;53.50
19214;DHT22;9741;51.020;5.304;2023-05-07T12:42:35;23.90;53.60
19214;DHT22;9741;51.020;5.304;2023-05-07T12:45:11;23.90;53.50
19214;DHT22;9741;51.020;5.304;2023-05-07T12:47:43;23.90;53.70
19214;DHT22;9741;51.020;5.304;2023-05-07T12:50:12;24.00;53.90
19214;DHT22;9741;51.020;5.304;2023-05-07T12:52:43;24.10;53.90
19214;DHT22;9741;51.020;5.304;2023-05-07T12:55:14;24.10;53.90
19214;DHT22;9741;51.020;5.304;2023-05-07T12:57:43;24.20;54.00
19214;DHT22;9741;51.020;5.304;2023-05-07T13:00:12;24.20;54.10
19214;DHT22;9741;51.020;5.304;2023-05-07T13:02:45;24.20;54.10
19214;DHT22;9741;51.020;5.304;2023-05-07T13:05:13;24.20;54.10
19214;DHT22;9741;51.020;5.304;2023-05-07T13:07:52;24.20;54.00
19214;DHT22;9741;51.020;5.304;2023-05-07T13:10:19;24.20;53.90
19214;DHT22;9741;51.020;5.304;2023-05-07T13:12:47;24.20;54.00
19214;DHT22;9741;51.020;5.304;2023-05-07T13:15:15;24.20;54.00
19214;DHT22;9741;51.020;5.304;2023-05-07T13:17:46;24.30;53.90
19214;DHT22;9741;51.020;5.304;2023-05-07T13:20:13;24.30;53.90
19214;DHT22;9741;51.020;5.304;2023-05-07T13:22:43;24.40;53.90
19214;DHT22;9741;51.020;5.304;2023-05-07T13:25:12;24.50;53.50
19214;DHT22;9741;51.020;5.304;2023-05-07T13:27:39;24.50;53.40
19214;DHT22;9741;51.020;5.304;2023-05-07T13:30:10;24.50;53.20
19214;DHT22;9741;51.020;5.304;2023-05-07T13:32:37;24.50;53.00
19214;DHT22;9741;51.020;5.304;2023-05-07T13:35:08;24.60;53.10
19214;DHT22;9741;51.020;5.304;2023-05-07T13:37:35;24.60;53.10
19214;DHT22;9741;51.020;5.304;2023-05-07T13:40:03;24.60;52.70
19214;DHT22;9741;51.020;5.304;2023-05-07T13:42:32;24.60;52.80
19214;DHT22;9741;51.020;5.304;2023-05-07T13:45:01;24.70;52.90
19214;DHT22;9741;51.020;5.304;2023-05-07T13:47:31;24.70;52.90
19214;DHT22;9741;51.020;5.304;2023-05-07T13:50:02;24.70;52.90
19214;DHT22;9741;51.020;5.304;2023-05-07T13:52:32;24.70;53.00
19214;DHT22;9741;51.020;5.304;2023-05-07T13:55:00;24.70;53.00
19214;DHT22;9741;51.020;5.304;2023-05-07T13:57:28;24.70;53.00
19214;DHT22;9741;51.020;5.304;2023-05-07T13:59:56;24.60;53.20
19214;DHT22;9741;51.020;5.304;2023-05-07T14:02:24;24.60;53.20
19214;DHT22;9741;51.020;5.304;2023-05-07T14:04:51;24.50;53.00
19214;DHT22;9741;51.020;5.304;2023-05-07T14:07:18;24.50;52.80
19214;DHT22;9741;51.020;5.304;2023-05-07T14:09:48;24.50;52.70
19214;DHT22;9741;51.020;5.304;2023-05-07T14:12:15;24.40;53.20
19214;DHT22;9741;51.020;5.304;2023-05-07T14:14:43;24.40;52.80
19214;DHT22;9741;51.020;5.304;2023-05-07T14:17:14;24.40;52.70
19214;DHT22;9741;51.020;5.304;2023-05-07T14:19:42;24.40;52.80
19214;DHT22;9741;51.020;5.304;2023-05-07T14:22:09;24.40;52.80
19214;DHT22;9741;51.020;5.304;2023-05-07T14:24:37;24.40;52.80
19214;DHT22;9741;51.020;5.304;2023-05-07T14:27:07;24.50;52.80
19214;DHT22;9741;51.020;5.304;2023-05-07T14:29:44;24.40;52.60
19214;DHT22;9741;51.020;5.304;2023-05-07T14:32:18;24.40;52.60
19214;DHT22;9741;51.020;5.304;2023-05-07T14:34:45;24.40;52.60
19214;DHT22;9741;51.020;5.304;2023-05-07T14:37:13;24.40;52.30
19214;DHT22;9741;51.020;5.304;2023-05-07T14:39:41;24.30;52.10
19214;DHT22;9741;51.020;5.304;2023-05-07T14:42:12;24.30;52.10
19214;DHT22;9741;51.020;5.304;2023-05-07T14:44:39;24.30;52.30
19214;DHT22;9741;51.020;5.304;2023-05-07T14:47:13;24.20;52.30
19214;DHT22;9741;51.020;5.304;2023-05-07T14:49:41;24.20;52.30
19214;DHT22;9741;51.020;5.304;2023-05-07T14:52:09;24.20;52.50
19214;DHT22;9741;51.020;5.304;2023-05-07T14:54:37;24.20;52.50
19214;DHT22;9741;51.020;5.304;2023-05-07T14:57:06;24.20;52.40
19214;DHT22;9741;51.020;5.304;2023-05-07T14:59:45;24.10;52.10
19214;DHT22;9741;51.020;5.304;2023-05-07T15:02:15;24.00;51.90
19214;DHT22;9741;51.020;5.304;2023-05-07T15:04:43;24.00;52.00
19214;DHT22;9741;51.020;5.304;2023-05-07T15:07:13;23.90;52.00
19214;DHT22;9741;51.020;5.304;2023-05-07T15:09:46;23.90;52.00
19214;DHT22;9741;51.020;5.304;2023-05-07T15:12:16;23.90;51.70
19214;DHT22;9741;51.020;5.304;2023-05-07T15:14:45;23.90;51.70
19214;DHT22;9741;51.020;5.304;2023-05-07T15:17:13;23.90;51.80
19214;DHT22;9741;51.020;5.304;2023-05-07T15:19:41;23.90;51.90
19214;DHT22;9741;51.020;5.304;2023-05-07T15:22:09;23.90;51.90
19214;DHT22;9741;51.020;5.304;2023-05-07T15:24:39;23.90;51.80
19214;DHT22;9741;51.020;5.304;2023-05-07T15:27:09;23.90;51.70
19214;DHT22;9741;51.020;5.304;2023-05-07T15:29:37;23.90;51.70
19214;DHT22;9741;51.020;5.304;2023-05-07T15:32:08;24.00;51.80
19214;DHT22;9741;51.020;5.304;2023-05-07T15:34:36;24.00;51.80
19214;DHT22;9741;51.020;5.304;2023-05-07T15:37:04;24.00;51.80
19214;DHT22;9741;51.020;5.304;2023-05-07T15:39:35;24.00;51.80
19214;DHT22;9741;51.020;5.304;2023-05-07T15:42:02;24.10;51.90
19214;DHT22;9741;51.020;5.304;2023-05-07T15:44:30;24.10;51.90
19214;DHT22;9741;51.020;5.304;2023-05-07T15:46:59;24.10;51.80
19214;DHT22;9741;51.020;5.304;2023-05-07T15:49:30;24.10;51.70
19214;DHT22;9741;51.020;5.304;2023-05-07T15:51:58;24.20;51.70
19214;DHT22;9741;51.020;5.304;2023-05-07T15:54:26;24.10;51.50
19214;DHT22;9741;51.020;5.304;2023-05-07T15:56:56;24.10;51.50
19214;DHT22;9741;51.020;5.304;2023-05-07T15:59:27;24.00;51.50
19214;DHT22;9741;51.020;5.304;2023-05-07T16:01:58;24.00;51.60